Time;durP1;ratioP1;P1;durP2;ratioP2;P2;SDS_P1;SDS_P2;PMS_P1;PMS_P2;Temp;Humidity;BMP_temperature;BMP_pressure;BME280_temperature;BME280_humidity;BME280_pressure;Samples;Min_cycle;Max_cycle;Signal;HPM_P1;HPM_P2
2021/07/10 00:00:06;;;;;;;6.47;4.30;;;18.80;74.20;;;;;;4970272;28;20086;-76
2021/07/10 00:02:33;;;;;;;5.53;3.40;;;18.70;74.30;;;;;;4971614;28;20042;-76
2021/07/10 00:05:00;;;;;;;6.90;4.07;;;18.70;74.30;;;;;;4968060;28;20058;-76
2021/07/10 00:07:27;;;;;;;8.35;3.53;;;18.70;74.30;;;;;;5003238;28;20046;-76
2021/07/10 00:09:54;;;;;;;6.47;3.65;;;18.70;74.40;;;;;;4971550;28;20114;-76
2021/07/10 00:12:21;;;;;;;5.90;3.72;;;18.70;74.50;;;;;;4970769;28;20039;-76
2021/07/10 00:14:48;;;;;;;5.85;3.78;;;18.60;74.50;;;;;;4955406;28;20077;-76
2021/07/10 00:17:15;;;;;;;6.82;4.20;;;18.60;74.60;;;;;;5002498;28;20109;-76
2021/07/10 00:19:42;;;;;;;6.25;3.97;;;18.60;74.70;;;;;;4949976;28;20105;-76
2021/07/10 00:22:09;;;;;;;6.20;3.83;;;18.60;74.80;;;;;;4969975;28;20094;-76
2021/07/10 00:24:36;;;;;;;7.00;4.45;;;18.60;74.80;;;;;;4972156;28;20517;-76
2021/07/10 00:27:03;;;;;;;6.63;4.18;;;18.70;74.90;;;;;;4971667;28;20061;-76
2021/07/10 00:29:30;;;;;;;6.40;4.07;;;18.60;74.90;;;;;;4953573;28;20126;-76
2021/07/10 00:31:57;;;;;;;5.35;3.42;;;18.60;75.10;;;;;;4988248;28;20046;-76
2021/07/10 00:34:24;;;;;;;6.32;4.10;;;18.60;75.10;;;;;;4988879;28;20038;-77
2021/07/10 00:36:51;;;;;;;5.68;3.13;;;18.60;75.20;;;;;;4969127;28;20054;-76
2021/07/10 00:39:18;;;;;;;6.28;3.63;;;18.50;75.30;;;;;;4968058;28;20475;-76
2021/07/10 00:41:45;;;;;;;8.27;3.80;;;18.50;75.40;;;;;;4980967;28;20047;-76
2021/07/10 00:44:12;;;;;;;6.05;3.60;;;18.50;75.50;;;;;;4973559;28;20089;-76
2021/07/10 00:46:39;;;;;;;7.55;4.50;;;18.40;75.50;;;;;;4950155;28;20384;-76
2021/07/10 00:49:06;;;;;;;6.28;3.85;;;18.40;75.70;;;;;;4971521;28;20082;-76
2021/07/10 00:51:34;;;;;;;7.07;4.70;;;18.30;75.70;;;;;;4955376;28;20117;-76
2021/07/10 00:54:02;;;;;;;7.68;4.38;;;18.30;75.80;;;;;;4969949;28;20039;-76
2021/07/10 00:56:29;;;;;;;6.80;4.07;;;18.30;75.90;;;;;;4972711;28;20045;-76
2021/07/10 00:58:56;;;;;;;7.82;3.90;;;18.20;75.90;;;;;;4985634;28;20046;-76
2021/07/10 01:01:23;;;;;;;7.30;4.60;;;18.20;75.90;;;;;;4985111;28;20066;-76
2021/07/10 01:03:51;;;;;;;7.03;3.78;;;18.30;76.10;;;;;;4988289;28;20047;-76
2021/07/10 01:06:18;;;;;;;6.95;4.57;;;18.30;76.00;;;;;;5002289;28;20073;-76
2021/07/10 01:08:46;;;;;;;8.25;4.50;;;18.30;76.00;;;;;;4971635;28;20051;-76
2021/07/10 01:11:14;;;;;;;6.53;3.58;;;18.40;76.00;;;;;;4970557;28;20050;-76
2021/07/10 01:13:42;;;;;;;7.05;3.97;;;18.40;76.00;;;;;;4957528;28;20123;-76
2021/07/10 01:16:09;;;;;;;8.10;4.10;;;18.50;76.00;;;;;;4979228;28;20058;-76
2021/07/10 01:18:36;;;;;;;7.30;4.10;;;18.50;75.90;;;;;;4966269;28;20923;-76
2021/07/10 01:21:03;;;;;;;6.72;4.00;;;18.50;76.00;;;;;;5003881;28;20035;-76
2021/07/10 01:23:30;;;;;;;9.32;4.63;;;18.50;76.00;;;;;;4975827;28;20038;-77
2021/07/10 01:25:57;;;;;;;7.18;4.10;;;18.50;76.00;;;;;;4971673;28;20062;-76
2021/07/10 01:28:24;;;;;;;8.93;4.47;;;18.60;76.10;;;;;;5000261;28;20027;-76
2021/07/10 01:30:51;;;;;;;8.55;4.68;;;18.60;76.10;;;;;;4933459;28;20062;-76
2021/07/10 01:33:19;;;;;;;9.30;4.93;;;18.60;76.00;;;;;;4987806;28;20089;-76
2021/07/10 01:35:46;;;;;;;8.02;4.43;;;18.60;76.10;;;;;;4973221;28;20062;-76
2021/07/10 01:38:15;;;;;;;8.80;4.60;;;18.70;76.70;;;;;;4974240;28;20495;-76
2021/07/10 01:40:43;;;;;;;7.50;3.83;;;18.70;76.10;;;;;;4989533;28;20043;-76
2021/07/10 01:43:11;;;;;;;6.15;3.78;;;18.70;76.20;;;;;;4977009;28;20399;-76
2021/07/10 01:45:40;;;;;;;8.15;4.82;;;18.70;76.20;;;;;;4991797;28;20398;-77
2021/07/10 01:48:13;;;;;;;8.48;4.95;;;18.70;76.20;;;;;;4972911;28;20039;-77
2021/07/10 01:50:41;;;;;;;7.95;5.05;;;18.70;76.30;;;;;;4945576;28;20480;-77
2021/07/10 01:53:12;;;;;;;9.10;5.10;;;18.70;76.40;;;;;;4971101;28;20368;-77
2021/07/10 01:55:40;;;;;;;7.45;4.40;;;18.70;76.50;;;;;;4974116;28;20093;-77
2021/07/10 01:58:07;;;;;;;7.90;5.07;;;18.60;76.60;;;;;;4975234;28;20499;-77
2021/07/10 02:00:39;;;;;;;10.27;5.53;;;18.60;76.80;;;;;;4991565;28;20034;-77
2021/07/10 02:03:06;;;;;;;8.60;5.43;;;18.50;76.90;;;;;;4991467;28;20043;-77
2021/07/10 02:05:33;;;;;;;7.28;4.32;;;18.40;77.00;;;;;;4974430;28;20051;-77
2021/07/10 02:08:00;;;;;;;6.88;4.35;;;18.40;77.20;;;;;;4988521;28;20039;-77
2021/07/10 02:10:29;;;;;;;8.07;4.32;;;18.30;77.30;;;;;;4971839;28;20046;-77
2021/07/10 02:13:00;;;;;;;8.32;5.07;;;18.30;77.40;;;;;;4977753;28;20114;-77
2021/07/10 02:15:28;;;;;;;8.02;4.05;;;18.30;77.40;;;;;;4989972;28;20043;-77
2021/07/10 02:17:55;;;;;;;7.63;4.47;;;18.30;77.50;;;;;;4991764;28;20066;-77
2021/07/10 02:20:24;;;;;;;10.38;5.95;;;18.30;77.40;;;;;;4989289;28;20502;-77
2021/07/10 02:22:51;;;;;;;9.65;5.70;;;18.40;77.50;;;;;;5000985;28;20042;-77
2021/07/10 02:25:19;;;;;;;7.15;4.55;;;18.40;77.50;;;;;;5004992;28;20054;-77
2021/07/10 02:27:48;;;;;;;7.28;4.97;;;18.40;78.20;;;;;;4971123;28;20102;-77
2021/07/10 02:30:18;;;;;;;8.57;4.78;;;18.40;77.60;;;;;;4974156;28;20090;-77
2021/07/10 02:32:46;;;;;;;8.23;5.30;;;18.40;77.60;;;;;;4975002;28;20038;-77
2021/07/10 02:35:15;;;;;;;9.20;4.90;;;18.40;77.70;;;;;;4990157;28;20050;-77
2021/07/10 02:37:43;;;;;;;8.43;4.78;;;18.40;77.80;;;;;;4969524;28;20043;-77
2021/07/10 02:40:12;;;;;;;8.05;5.00;;;18.40;77.80;;;;;;4970773;28;20487;-77
2021/07/10 02:42:40;;;;;;;8.10;4.43;;;18.40;77.90;;;;;;4971336;28;20050;-77
2021/07/10 02:45:09;;;;;;;8.50;5.10;;;18.30;77.90;;;;;;4990483;28;20093;-77
2021/07/10 02:47:37;;;;;;;8.23;4.50;;;18.30;78.10;;;;;;4974285;28;20050;-77
2021/07/10 02:50:08;;;;;;;7.57;4.75;;;18.30;78.30;;;;;;4975549;28;20039;-77
2021/07/10 02:52:35;;;;;;;8.15;4.90;;;18.20;78.30;;;;;;4975849;28;20039;-77
2021/07/10 02:55:03;;;;;;;7.32;4.63;;;18.10;78.40;;;;;;4970941;28;20070;-77
2021/07/10 02:57:30;;;;;;;8.27;5.10;;;18.10;78.60;;;;;;4975438;28;20423;-77
2021/07/10 02:59:57;;;;;;;9.82;5.22;;;18.00;78.60;;;;;;4974183;28;20887;-79
2021/07/10 03:02:24;;;;;;;7.32;4.43;;;18.00;78.80;;;;;;4942935;28;20035;-77
2021/07/10 03:04:51;;;;;;;8.32;5.20;;;17.90;78.90;;;;;;4953714;28;20055;-77
2021/07/10 03:07:18;;;;;;;10.30;5.20;;;17.90;79.00;;;;;;4942255;28;20070;-77
2021/07/10 03:09:45;;;;;;;7.95;4.88;;;17.80;79.10;;;;;;4974330;28;20034;-77
2021/07/10 03:12:12;;;;;;;9.90;5.68;;;17.80;79.20;;;;;;4972610;28;20077;-77
2021/07/10 03:14:39;;;;;;;8.88;4.82;;;17.80;79.40;;;;;;4973658;28;20074;-77
2021/07/10 03:17:06;;;;;;;7.95;5.15;;;17.70;79.40;;;;;;4974287;28;20093;-77
2021/07/10 03:19:33;;;;;;;7.40;4.90;;;17.70;79.40;;;;;;4988516;28;20402;-77
2021/07/10 03:22:00;;;;;;;8.77;4.63;;;17.70;79.50;;;;;;4971878;28;20070;-77
2021/07/10 03:24:27;;;;;;;9.25;4.78;;;17.70;79.50;;;;;;4974262;28;20050;-77
2021/07/10 03:26:54;;;;;;;7.15;4.57;;;17.60;79.40;;;;;;4972616;28;20510;-77
2021/07/10 03:29:21;;;;;;;7.78;4.50;;;17.60;79.40;;;;;;4973646;28;20579;-77
2021/07/10 03:31:48;;;;;;;8.27;5.10;;;17.60;79.50;;;;;;4982630;28;20053;-77
2021/07/10 03:34:15;;;;;;;9.13;4.93;;;17.50;79.50;;;;;;4982172;28;20042;-77
2021/07/10 03:36:42;;;;;;;9.27;5.03;;;17.50;79.70;;;;;;4945417;28;20130;-77
2021/07/10 03:39:09;;;;;;;8.70;5.28;;;17.50;79.80;;;;;;4974300;28;20042;-77
2021/07/10 03:41:36;;;;;;;7.88;4.28;;;17.50;79.90;;;;;;4972397;28;20399;-77
2021/07/10 03:44:03;;;;;;;8.27;4.57;;;17.40;79.90;;;;;;5005124;28;20129;-77
2021/07/10 03:46:30;;;;;;;7.22;3.80;;;17.50;80.60;;;;;;4987533;28;20109;-77
2021/07/10 03:48:57;;;;;;;11.50;4.75;;;17.40;80.00;;;;;;4987631;28;20137;-77
2021/07/10 03:51:26;;;;;;;7.00;4.22;;;17.40;80.00;;;;;;4989128;28;20043;-78
2021/07/10 03:53:54;;;;;;;8.10;4.35;;;17.40;80.00;;;;;;4959928;28;20051;-77
2021/07/10 03:56:21;;;;;;;7.95;5.00;;;17.40;80.10;;;;;;4958566;28;20119;-77
2021/07/10 03:58:48;;;;;;;7.85;4.60;;;17.40;80.10;;;;;;4974125;28;20327;-77
2021/07/10 04:01:15;;;;;;;6.90;3.90;;;17.50;80.10;;;;;;4951701;28;20075;-77
2021/07/10 04:03:42;;;;;;;7.53;4.80;;;17.40;80.00;;;;;;4972747;28;20081;-77
2021/07/10 04:06:09;;;;;;;7.65;4.45;;;17.40;79.90;;;;;;4989695;28;20043;-77
2021/07/10 04:08:36;;;;;;;8.50;4.63;;;17.50;80.00;;;;;;4970716;28;20050;-77
2021/07/10 04:11:03;;;;;;;7.13;3.95;;;17.50;80.00;;;;;;4971846;28;20097;-77
2021/07/10 04:13:30;;;;;;;8.15;4.07;;;17.50;79.90;;;;;;4999358;28;20122;-77
2021/07/10 04:15:57;;;;;;;7.70;4.25;;;17.50;79.80;;;;;;4972803;28;20050;-77
2021/07/10 04:18:24;;;;;;;7.65;4.28;;;17.60;79.80;;;;;;4947647;28;20495;-77
2021/07/10 04:20:51;;;;;;;7.85;4.68;;;17.60;79.70;;;;;;4972362;28;20051;-77
2021/07/10 04:23:20;;;;;;;7.20;4.43;;;17.60;79.80;;;;;;4973706;28;20499;-77
2021/07/10 04:25:47;;;;;;;8.20;4.55;;;17.70;79.90;;;;;;4973351;28;20510;-77
2021/07/10 04:28:14;;;;;;;8.60;4.40;;;17.70;79.80;;;;;;4964895;28;20054;-77
2021/07/10 04:30:41;;;;;;;7.78;3.75;;;17.70;79.70;;;;;;4973033;28;20038;-77
2021/07/10 04:33:08;;;;;;;7.22;4.25;;;17.70;79.70;;;;;;4972245;28;20046;-77
2021/07/10 04:35:35;;;;;;;8.52;4.18;;;17.70;79.60;;;;;;4988013;28;20468;-77
2021/07/10 04:38:02;;;;;;;7.57;4.57;;;17.80;79.60;;;;;;5005009;28;20149;-77
2021/07/10 04:40:29;;;;;;;8.45;4.43;;;17.80;79.60;;;;;;5005430;28;20062;-77
2021/07/10 04:42:56;;;;;;;8.40;4.80;;;17.80;79.70;;;;;;4974048;28;20043;-77
2021/07/10 04:45:23;;;;;;;8.63;4.43;;;17.80;79.70;;;;;;4972466;28;20050;-77
2021/07/10 04:47:50;;;;;;;8.27;4.82;;;17.90;79.70;;;;;;4952001;28;20130;-77
2021/07/10 04:50:17;;;;;;;9.23;4.65;;;17.90;79.70;;;;;;4972122;28;20051;-77
2021/07/10 04:52:44;;;;;;;7.97;5.03;;;18.00;79.80;;;;;;5003258;28;20039;-77
2021/07/10 04:55:14;;;;;;;7.70;4.55;;;18.10;79.80;;;;;;4955896;28;20495;-77
2021/07/10 04:57:42;;;;;;;7.88;4.60;;;18.10;79.70;;;;;;4970176;28;20058;-77
2021/07/10 05:00:10;;;;;;;8.38;5.15;;;18.20;79.70;;;;;;4987395;28;20039;-77
2021/07/10 05:02:38;;;;;;;10.95;6.05;;;18.20;79.80;;;;;;4975863;28;20081;-78
2021/07/10 05:05:05;;;;;;;11.45;6.20;;;18.30;79.60;;;;;;4971718;28;20446;-77
2021/07/10 05:07:36;;;;;;;10.45;6.50;;;18.30;79.50;;;;;;4971507;28;20046;-77
2021/07/10 05:10:05;;;;;;;10.60;5.30;;;18.40;79.50;;;;;;4986738;28;20134;-77
2021/07/10 05:12:32;;;;;;;8.48;5.30;;;18.40;79.50;;;;;;4970672;28;20122;-77
2021/07/10 05:14:59;;;;;;;8.45;5.03;;;18.40;79.40;;;;;;4998780;28;20359;-77
2021/07/10 05:17:26;;;;;;;8.05;4.88;;;18.50;79.40;;;;;;4955689;28;20043;-77
2021/07/10 05:19:53;;;;;;;9.07;4.65;;;18.50;79.40;;;;;;4971587;28;20051;-77
2021/07/10 05:22:20;;;;;;;10.48;6.38;;;18.50;79.40;;;;;;4964174;28;20101;-77
2021/07/10 05:24:47;;;;;;;9.05;5.57;;;18.60;79.40;;;;;;4971196;28;20141;-77
2021/07/10 05:27:14;;;;;;;11.80;6.68;;;18.60;79.40;;;;;;4967469;28;20487;-77
2021/07/10 05:29:42;;;;;;;8.77;5.70;;;18.70;79.40;;;;;;4955219;28;20067;-77
2021/07/10 05:32:09;;;;;;;10.23;5.95;;;18.80;79.30;;;;;;4986273;28;20043;-77
2021/07/10 05:34:36;;;;;;;8.55;5.57;;;18.80;79.20;;;;;;4971182;28;20043;-77
2021/07/10 05:37:03;;;;;;;12.90;6.15;;;18.90;79.00;;;;;;4971561;28;20863;-77
2021/07/10 05:39:30;;;;;;;11.68;6.53;;;19.00;78.90;;;;;;4972844;28;20063;-77
2021/07/10 05:41:57;;;;;;;8.32;4.93;;;19.10;78.70;;;;;;4948808;28;20047;-77
2021/07/10 05:44:25;;;;;;;11.68;6.78;;;19.30;78.60;;;;;;4987810;28;20042;-77
2021/07/10 05:46:52;;;;;;;10.82;6.07;;;19.40;78.40;;;;;;4986402;28;20046;-77
2021/07/10 05:49:21;;;;;;;11.60;6.60;;;19.50;78.20;;;;;;5002014;28;20345;-77
2021/07/10 05:51:48;;;;;;;11.27;6.57;;;19.60;78.00;;;;;;4986539;28;20058;-77
2021/07/10 05:54:15;;;;;;;11.43;7.20;;;19.80;77.80;;;;;;4966112;28;20067;-77
2021/07/10 05:56:44;;;;;;;10.95;6.88;;;19.90;78.20;;;;;;4972694;28;20059;-77
2021/07/10 05:59:11;;;;;;;12.35;7.55;;;20.00;77.40;;;;;;5003360;28;20058;-77
2021/07/10 06:01:38;;;;;;;10.90;7.25;;;20.10;77.20;;;;;;4954738;28;20831;-77
2021/07/10 06:04:05;;;;;;;10.55;6.05;;;20.20;77.00;;;;;;4954845;28;20050;-77
2021/07/10 06:06:32;;;;;;;12.88;7.95;;;20.30;76.80;;;;;;4972175;28;20054;-77
2021/07/10 06:08:59;;;;;;;13.23;7.97;;;20.40;76.60;;;;;;4987558;28;20050;-77
2021/07/10 06:11:26;;;;;;;13.82;7.72;;;20.50;76.50;;;;;;4979813;28;20769;-77
2021/07/10 06:13:53;;;;;;;12.75;6.88;;;20.60;76.30;;;;;;4973417;28;20129;-77
2021/07/10 06:16:20;;;;;;;12.15;6.93;;;20.70;76.10;;;;;;4983795;28;20047;-77
2021/07/10 06:18:47;;;;;;;16.17;10.52;;;20.80;75.90;;;;;;4970113;28;20046;-77
2021/07/10 06:21:14;;;;;;;19.05;12.23;;;20.80;75.50;;;;;;4968267;28;20067;-77
2021/07/10 06:23:45;;;;;;;14.23;9.93;;;20.70;75.30;;;;;;4974046;28;20038;-77
2021/07/10 06:26:12;;;;;;;14.60;9.63;;;20.70;75.40;;;;;;4972563;28;20045;-77
2021/07/10 06:28:39;;;;;;;16.48;12.30;;;20.70;75.20;;;;;;4967785;28;20042;-77
2021/07/10 06:31:06;;;;;;;17.15;11.55;;;20.70;75.20;;;;;;4974986;28;20051;-77
2021/07/10 06:33:33;;;;;;;17.25;11.68;;;20.70;75.20;;;;;;4975093;28;20421;-77
2021/07/10 06:36:00;;;;;;;17.40;10.65;;;20.70;75.10;;;;;;4975920;28;20403;-77
2021/07/10 06:38:27;;;;;;;17.67;11.90;;;20.70;75.00;;;;;;4975090;28;20122;-77
2021/07/10 06:40:54;;;;;;;19.38;13.02;;;20.70;74.80;;;;;;4975185;28;20046;-77
2021/07/10 06:43:21;;;;;;;21.27;13.20;;;20.70;74.60;;;;;;4967029;28;20047;-77
2021/07/10 06:45:48;;;;;;;17.02;12.27;;;20.70;74.50;;;;;;4973578;28;20039;-77
2021/07/10 06:48:15;;;;;;;19.00;12.45;;;20.70;74.50;;;;;;4972199;28;20093;-77
2021/07/10 06:50:42;;;;;;;19.25;11.68;;;20.70;74.50;;;;;;4969615;28;20125;-76
2021/07/10 06:53:09;;;;;;;19.75;13.75;;;20.70;74.60;;;;;;5006640;28;20129;-76
2021/07/10 06:55:36;;;;;;;18.35;12.43;;;20.70;74.50;;;;;;4973108;28;20051;-76
2021/07/10 06:58:03;;;;;;;23.63;16.58;;;20.60;74.60;;;;;;4973648;28;20109;-79
2021/07/10 07:00:30;;;;;;;24.63;17.10;;;20.60;74.80;;;;;;4956670;28;20079;-78
2021/07/10 07:02:58;;;;;;;22.95;16.70;;;20.60;74.90;;;;;;4972848;28;20046;-78
2021/07/10 07:05:25;;;;;;;20.50;13.25;;;20.60;74.90;;;;;;4974971;28;20034;-78
2021/07/10 07:07:52;;;;;;;19.42;13.60;;;20.70;74.80;;;;;;4975484;28;20043;-78
2021/07/10 07:10:19;;;;;;;17.88;12.85;;;20.80;74.60;;;;;;4970490;28;20054;-78
2021/07/10 07:12:47;;;;;;;19.50;12.68;;;20.80;74.40;;;;;;4972184;28;20433;-78
2021/07/10 07:15:15;;;;;;;15.63;10.68;;;20.80;74.30;;;;;;4971126;28;20402;-78
2021/07/10 07:17:42;;;;;;;17.50;11.15;;;20.90;74.30;;;;;;4989356;28;20133;-74
2021/07/10 07:20:13;;;;;;;16.05;10.98;;;20.80;74.80;;;;;;5004573;28;20058;-74
2021/07/10 07:22:44;;;;;;;19.92;14.38;;;20.90;74.20;;;;;;5008771;28;20057;-75
2021/07/10 07:25:12;;;;;;;17.60;11.90;;;20.90;74.10;;;;;;4979021;28;20447;-75
2021/07/10 07:27:39;;;;;;;16.70;11.80;;;20.90;74.10;;;;;;4969931;28;20046;-76
2021/07/10 07:30:08;;;;;;;17.60;11.77;;;21.00;74.00;;;;;;4973131;28;20073;-75
2021/07/10 07:32:36;;;;;;;18.92;13.52;;;21.10;73.60;;;;;;4972468;28;20057;-75
2021/07/10 07:35:05;;;;;;;18.05;12.82;;;21.10;73.30;;;;;;4972033;28;20110;-75
2021/07/10 07:37:32;;;;;;;17.15;11.45;;;21.00;73.40;;;;;;4975362;28;20047;-75
2021/07/10 07:39:59;;;;;;;14.20;10.27;;;21.00;73.30;;;;;;4970858;28;20070;-76
2021/07/10 07:42:26;;;;;;;16.52;11.25;;;21.10;73.20;;;;;;4984511;28;21053;-76
2021/07/10 07:44:53;;;;;;;13.25;10.10;;;21.30;72.80;;;;;;4984755;28;20058;-75
2021/07/10 07:47:20;;;;;;;12.88;9.32;;;21.30;72.60;;;;;;4972655;28;20038;-76
2021/07/10 07:49:47;;;;;;;13.88;10.18;;;21.40;72.30;;;;;;4987116;28;20102;-76
2021/07/10 07:52:15;;;;;;;11.18;8.35;;;21.50;72.00;;;;;;4972919;28;20050;-75
2021/07/10 07:54:42;;;;;;;15.88;9.93;;;21.50;71.80;;;;;;4955707;28;20061;-75
2021/07/10 07:57:09;;;;;;;14.80;9.77;;;21.60;71.70;;;;;;4972640;28;20045;-75
2021/07/10 07:59:36;;;;;;;12.93;8.65;;;21.60;71.70;;;;;;4973501;28;20046;-75
2021/07/10 08:02:04;;;;;;;16.85;8.60;;;21.60;71.70;;;;;;4972914;28;20201;-76
2021/07/10 08:04:31;;;;;;;10.30;6.65;;;21.70;71.50;;;;;;4941115;28;20488;-75
2021/07/10 08:06:58;;;;;;;9.63;7.32;;;21.80;71.50;;;;;;4986881;28;20442;-75
2021/07/10 08:09:25;;;;;;;11.90;6.30;;;21.90;71.10;;;;;;4970926;28;20076;-75
2021/07/10 08:11:52;;;;;;;11.05;7.50;;;22.00;70.80;;;;;;4967330;28;20130;-75
2021/07/10 08:14:19;;;;;;;10.40;6.63;;;22.10;70.50;;;;;;4969637;28;20129;-76
2021/07/10 08:16:46;;;;;;;9.00;6.28;;;22.20;70.30;;;;;;4971105;28;20051;-76
2021/07/10 08:19:14;;;;;;;10.77;6.18;;;22.30;70.80;;;;;;4972203;28;20077;-76
2021/07/10 08:21:41;;;;;;;7.82;5.00;;;22.40;69.80;;;;;;4998922;28;20082;-76
2021/07/10 08:24:09;;;;;;;9.40;5.47;;;22.50;69.80;;;;;;4987827;28;20047;-76
2021/07/10 08:26:39;;;;;;;7.90;5.75;;;22.50;69.70;;;;;;4970826;28;20125;-76
2021/07/10 08:29:06;;;;;;;9.18;6.35;;;22.60;69.40;;;;;;4972232;28;20050;-75
2021/07/10 08:31:34;;;;;;;8.43;5.70;;;22.50;69.90;;;;;;4986812;28;20081;-76
2021/07/10 08:34:02;;;;;;;8.75;5.32;;;22.50;69.20;;;;;;4970684;28;20078;-76
2021/07/10 08:36:29;;;;;;;7.85;5.10;;;22.50;69.20;;;;;;4971080;28;20650;-76
2021/07/10 08:38:56;;;;;;;7.85;5.45;;;22.60;69.30;;;;;;4955534;28;20039;-76
2021/07/10 08:41:24;;;;;;;6.78;4.82;;;22.70;69.10;;;;;;4971657;28;20039;-76
2021/07/10 08:43:54;;;;;;;8.30;5.28;;;22.70;69.00;;;;;;4955110;28;20050;-76
2021/07/10 08:46:21;;;;;;;7.88;5.30;;;22.70;68.70;;;;;;4983524;28;20058;-76
2021/07/10 08:48:49;;;;;;;8.98;5.03;;;22.80;68.80;;;;;;4985022;28;20053;-76
2021/07/10 08:51:16;;;;;;;7.55;5.18;;;22.90;68.60;;;;;;4986298;28;20051;-76
2021/07/10 08:53:43;;;;;;;8.98;5.70;;;22.90;68.30;;;;;;4985845;28;20063;-76
2021/07/10 08:56:10;;;;;;;9.32;5.47;;;22.90;68.10;;;;;;5002341;28;20503;-76
2021/07/10 08:58:38;;;;;;;9.00;5.95;;;22.90;68.10;;;;;;4986340;28;20047;-76
2021/07/10 09:01:08;;;;;;;8.07;5.30;;;23.00;67.90;;;;;;4968953;28;20047;-76
2021/07/10 09:03:35;;;;;;;8.95;5.03;;;23.00;67.70;;;;;;4971222;28;20046;-76
2021/07/10 09:06:02;;;;;;;6.43;4.53;;;23.00;67.50;;;;;;4969968;28;20130;-76
2021/07/10 09:08:31;;;;;;;7.47;5.18;;;23.10;67.50;;;;;;4980812;28;20039;-76
2021/07/10 09:11:07;;;;;;;6.63;4.63;;;23.20;67.30;;;;;;4979469;28;20063;-76
2021/07/10 09:13:55;;;;;;;8.57;4.40;;;23.20;67.00;;;;;;4971253;28;20054;-76
2021/07/10 09:16:28;;;;;;;5.55;3.30;;;23.20;66.90;;;;;;4994294;28;20053;-76
2021/07/10 09:19:09;;;;;;;5.28;3.25;;;23.20;66.50;;;;;;4979919;28;20051;-76
2021/07/10 09:21:43;;;;;;;6.53;3.45;;;23.30;66.40;;;;;;4971448;28;20055;-76
2021/07/10 09:24:34;;;;;;;4.68;2.88;;;23.30;66.10;;;;;;4982803;28;20531;-76
2021/07/10 09:27:07;;;;;;;4.85;2.63;;;23.30;66.00;;;;;;4971471;28;20043;-76
2021/07/10 09:29:45;;;;;;;4.15;2.85;;;23.30;66.00;;;;;;4971496;28;20050;-76
2021/07/10 09:32:18;;;;;;;4.63;2.85;;;23.40;65.60;;;;;;4985089;28;20419;-76
2021/07/10 09:34:51;;;;;;;5.03;2.50;;;23.40;65.30;;;;;;4968756;28;20042;-76
2021/07/10 09:37:24;;;;;;;4.60;2.35;;;23.60;65.10;;;;;;4970051;28;20074;-75
2021/07/10 09:40:12;;;;;;;4.38;2.30;;;23.70;64.60;;;;;;4979593;28;20066;-76
2021/07/10 09:42:40;;;;;;;;;;;23.70;64.20;;;;;;4967012;28;20049;-77
2021/07/10 09:45:15;;;;;;;2.53;1.58;;;23.70;64.10;;;;;;4983750;28;20021;-76
2021/07/10 09:47:42;;;;;;;3.13;1.83;;;23.80;63.70;;;;;;4970203;28;20042;-76
2021/07/10 09:50:20;;;;;;;3.20;1.73;;;24.00;63.00;;;;;;4983470;28;20372;-76
2021/07/10 09:52:48;;;;;;;3.03;1.10;;;24.10;62.30;;;;;;4970272;28;20105;-76
2021/07/10 09:55:17;;;;;;;2.78;1.15;;;24.10;62.00;;;;;;5002051;28;20039;-76
2021/07/10 09:57:45;;;;;;;3.33;1.55;;;24.30;61.70;;;;;;4969507;28;20039;-76
2021/07/10 10:00:13;;;;;;;3.50;2.17;;;24.40;61.10;;;;;;5004007;28;20043;-77
2021/07/10 10:02:47;;;;;;;2.97;1.73;;;24.40;60.30;;;;;;4975139;28;20113;-76
2021/07/10 10:05:17;;;;;;;2.60;1.60;;;24.30;59.80;;;;;;4973405;28;20487;-76
2021/07/10 10:07:50;;;;;;;4.95;1.50;;;24.20;59.80;;;;;;4973759;28;20484;-76
2021/07/10 10:10:31;;;;;;;2.58;1.45;;;24.20;59.70;;;;;;5002582;28;20039;-77
2021/07/10 10:13:04;;;;;;;3.25;1.80;;;24.20;59.70;;;;;;4987584;28;20050;-77
2021/07/10 10:15:48;;;;;;;2.63;1.52;;;24.20;59.40;;;;;;4972025;28;20065;-76
2021/07/10 10:18:17;;;;;;;4.38;1.80;;;24.20;59.40;;;;;;4967556;28;20050;-78
2021/07/10 10:20:45;;;;;;;3.55;1.50;;;24.30;59.50;;;;;;5001252;28;20038;-78
2021/07/10 10:23:14;;;;;;;3.10;2.05;;;24.40;59.50;;;;;;4974728;28;20130;-78
2021/07/10 10:25:42;;;;;;;3.28;1.40;;;24.40;59.30;;;;;;4972984;28;20504;-77
2021/07/10 10:28:20;;;;;;;3.05;1.60;;;24.50;59.00;;;;;;4990872;28;20042;-77
2021/07/10 10:30:49;;;;;;;3.55;1.50;;;24.50;58.80;;;;;;4971535;28;20049;-77
2021/07/10 10:33:16;;;;;;;2.88;1.70;;;24.40;58.60;;;;;;5000538;28;20126;-77
2021/07/10 10:35:46;;;;;;;3.70;2.08;;;24.40;58.50;;;;;;5004525;28;20110;-78
2021/07/10 10:38:17;;;;;;;4.32;1.80;;;24.30;58.20;;;;;;4986756;28;20118;-78
2021/07/10 10:40:45;;;;;;;3.55;1.63;;;24.40;58.40;;;;;;4973071;28;20043;-78
2021/07/10 10:43:16;;;;;;;4.32;2.60;;;24.50;58.30;;;;;;4988221;28;20039;-78
2021/07/10 10:45:45;;;;;;;3.80;2.60;;;24.70;57.90;;;;;;4988389;28;20431;-78
2021/07/10 10:48:16;;;;;;;4.18;2.50;;;24.70;57.50;;;;;;4978233;28;20070;-79
2021/07/10 10:50:44;;;;;;;3.90;2.10;;;24.80;57.40;;;;;;4972426;28;20058;-78
2021/07/10 10:53:22;;;;;;;3.95;2.42;;;24.90;57.40;;;;;;5006495;28;20495;-78
2021/07/10 10:55:49;;;;;;;3.90;1.88;;;25.10;57.00;;;;;;4988703;28;20045;-78
2021/07/10 10:58:29;;;;;;;3.38;2.05;;;25.20;57.00;;;;;;5005346;28;20038;-78
2021/07/10 11:01:09;;;;;;;3.15;2.05;;;25.40;56.90;;;;;;4999900;28;20047;-78
2021/07/10 11:03:38;;;;;;;3.75;1.88;;;25.60;56.80;;;;;;4998776;28;20049;-74
2021/07/10 11:06:25;;;;;;;3.10;1.70;;;25.70;56.70;;;;;;4977510;28;20054;-74
2021/07/10 11:08:53;;;;;;;3.38;2.15;;;25.60;56.60;;;;;;4965709;28;20090;-76
2021/07/10 11:11:22;;;;;;;3.13;1.75;;;25.50;56.80;;;;;;4986675;28;20042;-76
2021/07/10 11:14:07;;;;;;;3.55;2.10;;;25.40;56.60;;;;;;4970840;28;20093;-76
2021/07/10 11:16:36;;;;;;;4.15;2.40;;;25.30;56.70;;;;;;4972819;28;20484;-76
2021/07/10 11:19:08;;;;;;;3.92;2.35;;;25.30;56.70;;;;;;5002337;28;20042;-76
2021/07/10 11:21:38;;;;;;;3.13;1.95;;;25.30;56.70;;;;;;4969773;28;20078;-76
2021/07/10 11:24:20;;;;;;;3.15;2.05;;;25.40;57.40;;;;;;4998128;28;20043;-76
2021/07/10 11:26:54;;;;;;;;;;;25.60;56.40;;;;;;4978446;28;20057;-76
2021/07/10 11:29:28;;;;;;;4.57;2.63;;;25.40;56.10;;;;;;4984122;28;19973;-76
2021/07/10 11:32:19;;;;;;;3.47;2.13;;;25.40;56.10;;;;;;4972506;28;20050;-75
2021/07/10 11:34:57;;;;;;;5.10;3.38;;;25.50;56.20;;;;;;4971643;28;20093;-75
2021/07/10 11:37:29;;;;;;;3.83;2.13;;;25.60;56.20;;;;;;4968645;28;20039;-75
2021/07/10 11:40:02;;;;;;;4.18;2.33;;;25.60;56.20;;;;;;4972580;28;20042;-75
2021/07/10 11:42:49;;;;;;;4.18;2.50;;;25.60;55.80;;;;;;4973071;28;20038;-75
2021/07/10 11:45:26;;;;;;;5.80;3.85;;;25.60;56.00;;;;;;5002089;28;20046;-76
2021/07/10 11:47:59;;;;;;;5.38;3.70;;;25.50;55.50;;;;;;4974245;28;20042;-75
2021/07/10 11:50:30;;;;;;;5.00;2.63;;;25.40;55.40;;;;;;4975823;28;20066;-75
2021/07/10 11:53:02;;;;;;;4.15;2.72;;;25.30;55.50;;;;;;4970214;28;20415;-75
2021/07/10 11:55:33;;;;;;;7.53;4.75;;;25.40;55.50;;;;;;4970185;28;20494;-75
2021/07/10 11:58:05;;;;;;;5.63;4.10;;;25.80;55.00;;;;;;4971946;28;20039;-75
2021/07/10 12:00:33;;;;;;;5.82;3.80;;;25.90;54.40;;;;;;4987563;28;20651;-76
2021/07/10 12:03:00;;;;;;;4.50;2.95;;;26.00;54.40;;;;;;4971717;28;20043;-76
2021/07/10 12:05:30;;;;;;;5.47;3.60;;;26.10;54.60;;;;;;4982453;28;20102;-75
2021/07/10 12:07:59;;;;;;;5.70;3.40;;;26.30;54.40;;;;;;4970734;28;20069;-75
2021/07/10 12:10:30;;;;;;;4.75;2.60;;;26.20;54.30;;;;;;4971377;28;20042;-75
2021/07/10 12:13:10;;;;;;;5.25;2.88;;;26.40;54.50;;;;;;4984812;28;20046;-75
2021/07/10 12:15:46;;;;;;;3.63;2.38;;;26.70;53.50;;;;;;4970091;28;20122;-74
2021/07/10 12:18:14;;;;;;;3.40;2.10;;;26.90;53.40;;;;;;4985711;28;20066;-75
2021/07/10 12:21:04;;;;;;;3.70;2.70;;;27.30;53.00;;;;;;4969820;28;20440;-75
2021/07/10 12:23:37;;;;;;;3.45;2.45;;;27.80;52.40;;;;;;4986481;28;20043;-75
2021/07/10 12:26:10;;;;;;;4.95;3.20;;;28.10;52.20;;;;;;4970293;28;20129;-75
2021/07/10 12:28:44;;;;;;;3.95;2.90;;;28.30;51.00;;;;;;4971356;28;20047;-75
2021/07/10 12:31:33;;;;;;;5.32;3.15;;;28.50;50.50;;;;;;4972433;28;20398;-75
2021/07/10 12:34:01;;;;;;;3.67;2.20;;;28.80;50.20;;;;;;4984753;28;20090;-74
2021/07/10 12:36:41;;;;;;;4.13;2.30;;;28.90;50.10;;;;;;4968903;28;20043;-75
2021/07/10 12:39:12;;;;;;;3.60;1.73;;;29.30;49.70;;;;;;4969594;28;20043;-74
2021/07/10 12:41:45;;;;;;;2.95;1.58;;;29.50;48.90;;;;;;4967641;28;20082;-74
2021/07/10 12:44:21;;;;;;;2.42;1.20;;;29.40;48.70;;;;;;4968986;28;20038;-75
2021/07/10 12:47:07;;;;;;;2.13;1.23;;;29.40;48.50;;;;;;4967549;28;20542;-75
2021/07/10 12:49:55;;;;;;;2.80;1.55;;;29.50;48.20;;;;;;4980658;28;20117;-74
2021/07/10 12:52:46;;;;;;;2.80;1.52;;;29.10;48.10;;;;;;4969868;28;20125;-75